createdAt,value
2023-12-09T00:01:47.639Z,16.60
2023-12-09T00:04:16.154Z,18.00
2023-12-09T00:06:49.640Z,21.60
2023-12-09T00:09:21.576Z,16.90
2023-12-09T00:11:50.210Z,18.70
2023-12-09T00:14:18.786Z,17.60
2023-12-09T00:16:47.406Z,19.80
2023-12-09T00:19:16.199Z,17.20
2023-12-09T00:21:45.775Z,15.80
2023-12-09T00:24:14.363Z,16.70
2023-12-09T00:26:42.957Z,16.60
2023-12-09T00:29:11.605Z,17.00
2023-12-09T00:31:40.309Z,16.80
2023-12-09T00:34:08.945Z,17.10
2023-12-09T00:36:37.605Z,17.00
2023-12-09T00:39:06.810Z,18.10
2023-12-09T00:41:36.421Z,16.80
2023-12-09T00:44:05.122Z,18.50
2023-12-09T00:46:33.702Z,18.70
2023-12-09T00:49:02.341Z,15.40
2023-12-09T00:54:00.316Z,17.30
2023-12-09T00:56:34.357Z,17.90
2023-12-09T00:59:04.905Z,16.50
2023-12-09T01:01:35.236Z,16.10
2023-12-09T01:04:05.324Z,17.50
2023-12-09T01:06:34.258Z,16.20
2023-12-09T01:09:02.913Z,17.00
2023-12-09T01:11:31.669Z,17.40
2023-12-09T01:14:00.163Z,17.00
2023-12-09T01:16:28.722Z,16.90
2023-12-09T01:18:57.444Z,17.70
2023-12-09T01:21:26.066Z,20.40
2023-12-09T01:23:54.654Z,18.40
2023-12-09T01:26:23.323Z,16.80
2023-12-09T01:28:51.964Z,18.80
2023-12-09T01:31:20.582Z,18.00
2023-12-09T01:33:49.237Z,16.50
2023-12-09T01:36:18.435Z,17.00
2023-12-09T01:38:46.957Z,17.00
2023-12-09T01:41:15.612Z,18.90
2023-12-09T01:43:49.831Z,15.00
2023-12-09T01:46:20.002Z,20.10
2023-12-09T01:48:49.497Z,18.40
2023-12-09T01:51:19.329Z,18.10
2023-12-09T01:53:48.446Z,18.40
2023-12-09T01:56:19.162Z,19.00
2023-12-09T01:58:48.070Z,18.90
2023-12-09T02:01:16.986Z,17.10
2023-12-09T02:03:45.890Z,17.00
2023-12-09T02:06:14.465Z,15.90
2023-12-09T02:08:43.250Z,19.40
2023-12-09T02:11:51.985Z,17.80
2023-12-09T02:14:48.648Z,17.20
2023-12-09T02:17:23.539Z,19.50
2023-12-09T02:19:52.798Z,19.70
2023-12-09T02:22:21.398Z,17.90
2023-12-09T02:24:49.963Z,19.40
2023-12-09T02:27:34.518Z,18.80
2023-12-09T02:30:37.133Z,20.10
2023-12-09T02:33:10.139Z,19.10
2023-12-09T02:35:42.988Z,18.00
2023-12-09T02:38:12.685Z,18.00
2023-12-09T02:40:43.257Z,17.70
2023-12-09T02:43:12.793Z,19.20
2023-12-09T02:48:10.020Z,19.40
2023-12-09T02:50:39.630Z,16.70
2023-12-09T02:53:08.164Z,22.10
2023-12-09T02:55:36.771Z,20.20
2023-12-09T02:58:05.259Z,19.70
2023-12-09T03:00:33.895Z,18.40
2023-12-09T03:03:02.563Z,19.20
2023-12-09T03:05:31.243Z,19.80
2023-12-09T03:07:59.756Z,20.50
2023-12-09T03:10:28.530Z,19.70
2023-12-09T03:12:57.194Z,18.30
2023-12-09T03:15:25.799Z,19.00
2023-12-09T03:17:54.507Z,19.00
2023-12-09T03:20:23.429Z,20.90
2023-12-09T03:22:52.138Z,19.20
2023-12-09T03:25:20.630Z,20.30
2023-12-09T03:27:49.301Z,17.80
2023-12-09T03:30:17.978Z,21.90
2023-12-09T03:32:46.807Z,17.40
2023-12-09T03:35:15.426Z,20.50
2023-12-09T03:37:44.264Z,18.40
2023-12-09T03:40:13.507Z,20.50
2023-12-09T03:42:42.117Z,17.60
2023-12-09T03:45:11.125Z,21.50
2023-12-09T03:47:39.770Z,17.60
2023-12-09T03:50:09.062Z,19.90
2023-12-09T03:52:37.617Z,19.50
2023-12-09T03:55:07.821Z,19.30
2023-12-09T03:57:36.365Z,20.90
2023-12-09T04:00:06.154Z,20.70
2023-12-09T04:02:34.624Z,21.80
2023-12-09T04:05:03.438Z,22.80
2023-12-09T04:07:32.649Z,19.50
2023-12-09T04:10:01.193Z,21.00
2023-12-09T04:12:30.883Z,21.30
2023-12-09T04:14:59.716Z,19.40
2023-12-09T04:17:28.937Z,17.90
2023-12-09T04:19:57.612Z,20.40
2023-12-09T04:22:26.657Z,21.80
2023-12-09T04:24:55.829Z,21.00
2023-12-09T04:27:24.449Z,19.40
2023-12-09T04:29:53.031Z,18.90
2023-12-09T04:32:21.694Z,20.20
2023-12-09T04:34:50.359Z,20.60
2023-12-09T04:37:18.931Z,22.10
2023-12-09T04:39:47.720Z,25.60
2023-12-09T04:42:16.304Z,22.10
2023-12-09T04:44:44.756Z,20.70
2023-12-09T04:47:13.567Z,21.30
2023-12-09T04:49:42.416Z,20.10
2023-12-09T04:52:11.100Z,24.00
2023-12-09T04:54:39.720Z,21.50
2023-12-09T04:57:08.374Z,21.50
2023-12-09T04:59:36.870Z,20.50
2023-12-09T05:02:05.897Z,21.30
2023-12-09T05:04:34.412Z,21.70
2023-12-09T05:07:03.137Z,20.90
2023-12-09T05:09:31.842Z,21.20
2023-12-09T05:12:00.730Z,19.60
2023-12-09T05:14:29.315Z,21.40
2023-12-09T05:16:57.971Z,20.30
2023-12-09T05:19:26.609Z,19.60
2023-12-09T05:21:55.230Z,18.50
2023-12-09T05:24:23.795Z,25.10
2023-12-09T05:26:52.379Z,19.20
2023-12-09T05:29:20.956Z,21.60
2023-12-09T05:31:49.503Z,22.60
2023-12-09T05:34:18.629Z,21.50
2023-12-09T05:36:51.043Z,23.30
2023-12-09T05:39:19.857Z,20.60
2023-12-09T05:41:48.416Z,22.50
2023-12-09T05:44:17.240Z,19.80
2023-12-09T05:46:46.306Z,19.80
2023-12-09T05:49:15.310Z,22.90
2023-12-09T05:51:44.313Z,20.40
2023-12-09T05:54:13.177Z,24.80
2023-12-09T05:56:50.286Z,22.00
2023-12-09T05:59:19.408Z,20.70
2023-12-09T06:01:47.939Z,19.60
2023-12-09T06:04:16.550Z,22.00
2023-12-09T06:06:45.107Z,22.50
2023-12-09T06:09:13.845Z,18.60
2023-12-09T06:11:42.435Z,20.10
2023-12-09T06:14:11.026Z,22.10
2023-12-09T06:16:39.669Z,22.70
2023-12-09T06:19:08.273Z,23.70
2023-12-09T06:21:36.771Z,22.40
2023-12-09T06:24:05.846Z,22.10
2023-12-09T06:26:34.682Z,23.30
2023-12-09T06:29:03.618Z,20.30
2023-12-09T06:31:32.349Z,24.10
2023-12-09T06:34:01.437Z,22.20
2023-12-09T06:36:30.089Z,21.40
2023-12-09T06:38:58.607Z,23.10
2023-12-09T06:41:27.195Z,22.70
2023-12-09T06:43:55.742Z,22.50
2023-12-09T06:46:24.328Z,24.20
2023-12-09T06:48:52.987Z,20.60
2023-12-09T06:51:21.679Z,23.10
2023-12-09T06:53:50.555Z,24.00
2023-12-09T06:56:23.132Z,20.40
2023-12-09T06:58:52.675Z,20.30
2023-12-09T07:01:26.573Z,23.50
2023-12-09T07:03:56.425Z,24.50
2023-12-09T07:06:28.175Z,21.90
2023-12-09T07:09:00.170Z,21.00
2023-12-09T07:11:29.508Z,21.30
2023-12-09T07:13:58.061Z,20.00
2023-12-09T07:16:26.683Z,21.80
2023-12-09T07:19:01.303Z,20.90
2023-12-09T07:21:30.731Z,18.30
2023-12-09T07:23:59.347Z,22.80
2023-12-09T07:26:27.842Z,19.60
2023-12-09T07:28:57.360Z,23.50
2023-12-09T07:31:25.939Z,21.70
2023-12-09T07:33:54.676Z,20.00
2023-12-09T07:36:23.426Z,21.90
2023-12-09T07:38:51.926Z,20.70
2023-12-09T07:41:20.514Z,21.80
2023-12-09T07:43:49.185Z,23.90
2023-12-09T07:46:17.820Z,21.30
2023-12-09T07:48:46.574Z,20.80
2023-12-09T07:51:15.888Z,24.20
2023-12-09T07:53:44.476Z,23.30
2023-12-09T07:56:13.055Z,23.00
2023-12-09T07:58:42.159Z,21.20
2023-12-09T08:01:13.913Z,22.80
2023-12-09T08:03:42.643Z,24.10
2023-12-09T08:06:18.595Z,28.60
2023-12-09T08:08:48.108Z,22.50
2023-12-09T08:11:16.715Z,20.70
2023-12-09T08:13:45.556Z,19.30
2023-12-09T08:16:14.970Z,25.10
2023-12-09T08:18:45.340Z,23.00
2023-12-09T08:21:14.011Z,26.70
2023-12-09T08:23:42.804Z,25.20
2023-12-09T08:26:19.471Z,30.70
2023-12-09T08:28:48.162Z,26.40
2023-12-09T08:31:16.869Z,25.50
2023-12-09T08:33:45.600Z,23.50
2023-12-09T08:36:14.302Z,23.60
2023-12-09T08:38:44.267Z,31.60
2023-12-09T08:41:12.831Z,28.80
2023-12-09T08:43:41.594Z,30.30
2023-12-09T08:46:10.792Z,25.70
2023-12-09T08:48:39.676Z,27.60
2023-12-09T08:51:09.961Z,27.10
2023-12-09T08:53:38.604Z,26.00
2023-12-09T08:56:08.511Z,23.70
2023-12-09T08:58:37.078Z,24.90
2023-12-09T09:01:06.053Z,23.90
2023-12-09T09:03:34.975Z,23.30
2023-12-09T09:06:03.650Z,22.20
2023-12-09T09:08:32.433Z,23.50
2023-12-09T09:11:01.047Z,23.40
2023-12-09T09:13:30.654Z,26.20
2023-12-09T09:15:59.600Z,22.00
2023-12-09T09:18:28.343Z,23.70
2023-12-09T09:20:57.048Z,22.30
2023-12-09T09:23:25.873Z,21.10
2023-12-09T09:25:54.515Z,22.10
2023-12-09T09:28:23.182Z,22.10
2023-12-09T09:30:51.922Z,22.10
2023-12-09T09:33:21.555Z,23.60
2023-12-09T09:35:52.728Z,21.10
2023-12-09T09:38:21.293Z,24.90
2023-12-09T09:40:51.425Z,23.40
2023-12-09T09:43:29.878Z,22.90
2023-12-09T09:45:58.589Z,24.10
2023-12-09T09:48:29.812Z,23.60
2023-12-09T09:51:04.304Z,21.80
2023-12-09T09:53:59.900Z,23.00
2023-12-09T09:56:28.716Z,23.00
2023-12-09T09:58:57.492Z,23.20
2023-12-09T10:01:29.103Z,22.50
2023-12-09T10:03:57.692Z,23.20
2023-12-09T10:06:26.942Z,21.10
2023-12-09T10:08:55.711Z,23.90
2023-12-09T10:11:24.267Z,24.70
2023-12-09T10:13:52.827Z,23.70
2023-12-09T10:16:21.414Z,25.00
2023-12-09T10:18:50.367Z,20.90
2023-12-09T10:21:19.175Z,24.50
2023-12-09T10:23:47.898Z,23.70
2023-12-09T10:26:16.656Z,24.20
2023-12-09T10:28:52.354Z,24.40
2023-12-09T10:31:31.781Z,22.20
2023-12-09T10:34:00.565Z,19.50
2023-12-09T10:36:31.132Z,20.50
2023-12-09T10:38:59.816Z,23.90
2023-12-09T10:41:29.517Z,23.60
2023-12-09T10:43:58.137Z,21.90
2023-12-09T10:46:26.794Z,23.60
2023-12-09T10:48:55.748Z,24.90
2023-12-09T10:51:24.763Z,24.60
2023-12-09T10:53:53.394Z,22.40
2023-12-09T10:56:22.984Z,19.80
2023-12-09T11:01:22.021Z,23.80
2023-12-09T11:03:50.482Z,22.60
2023-12-09T11:06:20.816Z,24.10
2023-12-09T11:08:50.391Z,24.80
2023-12-09T11:11:20.464Z,22.40
2023-12-09T11:13:49.957Z,21.40
2023-12-09T11:16:21.007Z,19.20
2023-12-09T11:18:53.049Z,19.00
2023-12-09T11:21:24.772Z,18.60
2023-12-09T11:23:55.682Z,19.00
2023-12-09T11:26:33.504Z,17.70
2023-12-09T11:29:10.415Z,18.10
2023-12-09T11:31:40.254Z,19.20
2023-12-09T11:34:13.093Z,21.00
2023-12-09T11:36:43.207Z,21.10
2023-12-09T11:39:21.531Z,22.90
2023-12-09T11:41:51.976Z,21.50
2023-12-09T11:44:20.600Z,21.30
2023-12-09T11:46:49.116Z,18.50
2023-12-09T11:49:18.017Z,22.10
2023-12-09T11:51:46.627Z,21.30
2023-12-09T11:54:15.206Z,18.90
2023-12-09T11:56:43.778Z,20.60
2023-12-09T11:59:14.040Z,20.00
2023-12-09T12:01:42.675Z,20.90
2023-12-09T12:04:11.263Z,19.00
2023-12-09T12:06:40.045Z,22.80
2023-12-09T12:09:10.201Z,23.20
2023-12-09T12:11:39.013Z,22.90
2023-12-09T12:14:07.956Z,23.90
2023-12-09T12:16:37.504Z,24.50
2023-12-09T12:19:06.208Z,22.00
2023-12-09T12:21:34.957Z,19.40
2023-12-09T12:24:06.976Z,21.90
2023-12-09T12:26:35.709Z,19.00
2023-12-09T12:29:04.480Z,21.10
2023-12-09T12:31:34.917Z,22.40
2023-12-09T12:34:20.709Z,23.50
2023-12-09T12:36:50.278Z,24.40
2023-12-09T12:39:19.425Z,24.10
2023-12-09T12:41:48.346Z,23.30
2023-12-09T12:44:17.216Z,27.70
2023-12-09T12:46:46.379Z,28.10
2023-12-09T12:49:15.346Z,22.00
2023-12-09T12:51:44.370Z,27.10
2023-12-09T12:54:13.079Z,24.30
2023-12-09T12:56:41.825Z,24.00
2023-12-09T12:59:10.656Z,25.70
2023-12-09T13:01:41.765Z,25.30
2023-12-09T13:04:16.575Z,26.50
2023-12-09T13:06:46.456Z,22.80
2023-12-09T13:09:15.158Z,22.50
2023-12-09T13:11:44.855Z,26.00
2023-12-09T13:14:13.863Z,27.60
2023-12-09T13:16:42.422Z,25.10
2023-12-09T13:19:11.249Z,26.30
2023-12-09T13:21:39.901Z,27.80
2023-12-09T13:24:08.623Z,27.90
2023-12-09T13:26:37.380Z,22.30
2023-12-09T13:29:06.221Z,20.30
2023-12-09T13:31:35.072Z,23.80
2023-12-09T13:34:06.686Z,22.60
2023-12-09T13:36:39.745Z,23.60
2023-12-09T13:39:13.171Z,25.00
2023-12-09T13:41:43.492Z,26.10
2023-12-09T13:44:12.055Z,27.80
2023-12-09T13:46:41.826Z,26.00
2023-12-09T13:51:39.761Z,30.50
2023-12-09T13:56:40.773Z,25.00
2023-12-09T13:59:10.675Z,23.40
2023-12-09T14:01:39.356Z,24.90
2023-12-09T14:04:10.406Z,24.80
2023-12-09T14:06:39.151Z,24.00
2023-12-09T14:09:09.066Z,25.50
2023-12-09T14:11:37.851Z,25.70
2023-12-09T14:14:07.776Z,26.10
2023-12-09T14:16:37.218Z,24.50
2023-12-09T14:19:06.007Z,24.40
2023-12-09T14:21:34.866Z,27.20
2023-12-09T14:24:04.680Z,23.00
2023-12-09T14:26:35.673Z,24.40
2023-12-09T14:29:04.507Z,24.40
2023-12-09T14:31:34.217Z,24.30
2023-12-09T14:36:32.195Z,26.50
2023-12-09T14:39:01.172Z,27.10
2023-12-09T14:41:30.023Z,28.00
2023-12-09T14:44:03.568Z,25.50
2023-12-09T14:46:36.968Z,29.70
2023-12-09T14:49:06.287Z,27.30
2023-12-09T14:51:42.688Z,26.80
2023-12-09T14:54:16.363Z,27.10
2023-12-09T14:56:47.321Z,31.70
2023-12-09T14:59:17.580Z,25.90
2023-12-09T15:01:46.262Z,29.40
2023-12-09T15:04:15.082Z,29.50
2023-12-09T15:06:44.984Z,28.00
2023-12-09T15:09:14.843Z,26.40
2023-12-09T15:11:43.868Z,28.60
2023-12-09T15:14:12.551Z,28.00
2023-12-09T15:16:41.909Z,28.50
2023-12-09T15:19:11.191Z,26.50
2023-12-09T15:21:39.921Z,26.30
2023-12-09T15:24:08.700Z,27.40
2023-12-09T15:26:37.432Z,23.40
2023-12-09T15:29:06.107Z,23.30
2023-12-09T15:31:34.836Z,30.30
2023-12-09T15:34:03.602Z,22.60
2023-12-09T15:36:32.424Z,22.50
2023-12-09T15:39:01.291Z,25.00
2023-12-09T15:41:29.888Z,27.90
2023-12-09T15:43:58.557Z,27.60
2023-12-09T15:46:27.515Z,26.80
2023-12-09T15:48:56.605Z,25.50
2023-12-09T15:51:25.468Z,25.30
2023-12-09T15:53:54.390Z,25.60
2023-12-09T15:56:23.029Z,22.80
2023-12-09T15:58:51.974Z,29.10
2023-12-09T16:01:20.799Z,25.00
2023-12-09T16:03:50.683Z,26.30
2023-12-09T16:06:24.299Z,29.80
2023-12-09T16:09:00.219Z,26.60
2023-12-09T16:11:28.803Z,26.20
2023-12-09T16:13:57.408Z,25.90
2023-12-09T16:16:26.041Z,27.50
2023-12-09T16:18:54.814Z,32.00
2023-12-09T16:21:24.653Z,33.80
2023-12-09T16:23:53.903Z,32.60
2023-12-09T16:26:23.706Z,31.30
2023-12-09T16:28:52.310Z,26.80
2023-12-09T16:31:21.165Z,30.10
2023-12-09T16:33:49.843Z,33.70
2023-12-09T16:36:18.603Z,27.90
2023-12-09T16:38:47.294Z,29.70
2023-12-09T16:41:16.097Z,29.70
2023-12-09T16:43:44.828Z,32.90
2023-12-09T16:46:13.511Z,32.70
2023-12-09T16:48:42.313Z,30.70
2023-12-09T16:51:10.958Z,32.50
2023-12-09T16:53:39.906Z,32.80
2023-12-09T16:56:09.716Z,34.90
2023-12-09T16:58:38.382Z,30.90
2023-12-09T17:01:07.504Z,32.00
2023-12-09T17:03:36.242Z,33.80
2023-12-09T17:06:05.266Z,27.40
2023-12-09T17:08:35.603Z,33.20
2023-12-09T17:11:05.098Z,31.60
2023-12-09T17:13:33.733Z,34.60
2023-12-09T17:16:02.303Z,30.50
2023-12-09T17:18:34.674Z,36.70
2023-12-09T17:21:04.092Z,34.70
2023-12-09T17:23:38.623Z,35.80
2023-12-09T17:26:08.926Z,35.00
2023-12-09T17:28:37.527Z,35.50
2023-12-09T17:31:05.994Z,35.40
2023-12-09T17:33:34.812Z,32.90
2023-12-09T17:36:04.096Z,33.00
2023-12-09T17:38:33.202Z,36.20
2023-12-09T17:41:03.451Z,28.90
2023-12-09T17:43:32.044Z,33.40
2023-12-09T17:46:00.700Z,29.80
2023-12-09T17:48:29.682Z,35.60
2023-12-09T17:50:58.393Z,34.30
2023-12-09T17:53:26.950Z,35.50
2023-12-09T17:55:57.300Z,36.00
2023-12-09T17:58:26.205Z,34.20
2023-12-09T18:00:55.913Z,30.90
2023-12-09T18:05:53.145Z,27.20
2023-12-09T18:08:22.392Z,28.70
2023-12-09T18:10:51.323Z,34.40
2023-12-09T18:13:20.180Z,27.10
2023-12-09T18:15:50.867Z,28.20
2023-12-09T18:18:20.343Z,31.40
2023-12-09T18:20:49.696Z,31.50
2023-12-09T18:23:18.353Z,28.80
2023-12-09T18:25:47.251Z,28.40
2023-12-09T18:28:15.957Z,30.00
2023-12-09T18:30:44.760Z,35.20
2023-12-09T18:33:13.503Z,34.20
2023-12-09T18:35:42.222Z,30.50
2023-12-09T18:38:11.041Z,27.70
2023-12-09T18:40:39.528Z,32.80
2023-12-09T18:43:09.717Z,27.90
2023-12-09T18:45:38.659Z,32.80
2023-12-09T18:48:07.490Z,31.40
2023-12-09T18:50:36.147Z,34.60
2023-12-09T18:53:04.753Z,32.30
2023-12-09T18:55:33.457Z,39.70
2023-12-09T18:58:02.175Z,35.00
2023-12-09T19:03:01.946Z,32.80
2023-12-09T19:05:30.813Z,26.70
2023-12-09T19:08:00.238Z,28.30
2023-12-09T19:10:29.347Z,27.90
2023-12-09T19:13:00.250Z,30.20
2023-12-09T19:15:32.616Z,31.80
2023-12-09T19:18:01.534Z,31.00
2023-12-09T19:20:31.201Z,30.60
2023-12-09T19:25:29.008Z,27.90
2023-12-09T19:28:00.330Z,32.40
2023-12-09T19:30:29.337Z,35.30
2023-12-09T19:33:01.290Z,36.50
2023-12-09T19:35:30.279Z,31.80
2023-12-09T19:37:58.863Z,32.00
2023-12-09T19:40:27.679Z,32.70
2023-12-09T19:42:58.048Z,28.40
2023-12-09T19:45:29.574Z,30.60
2023-12-09T19:48:00.308Z,26.80
2023-12-09T19:50:29.076Z,34.40
2023-12-09T19:52:58.126Z,31.10
2023-12-09T19:55:26.749Z,31.60
2023-12-09T19:57:55.976Z,31.30
2023-12-09T20:00:24.512Z,33.40
2023-12-09T20:02:53.476Z,31.80
2023-12-09T20:05:23.281Z,32.00
2023-12-09T20:07:51.857Z,28.70
2023-12-09T20:10:20.670Z,33.40
2023-12-09T20:12:49.595Z,30.40
2023-12-09T20:15:18.450Z,32.30
2023-12-09T20:17:47.291Z,28.50
2023-12-09T20:20:15.964Z,32.40
2023-12-09T20:22:44.730Z,35.00
2023-12-09T20:25:14.238Z,29.60
2023-12-09T20:27:42.704Z,34.50
2023-12-09T20:30:12.244Z,29.60
2023-12-09T20:32:41.001Z,30.20
2023-12-09T20:35:09.701Z,30.60
2023-12-09T20:37:38.390Z,32.90
2023-12-09T20:40:07.759Z,32.50
2023-12-09T20:42:36.451Z,30.80
2023-12-09T20:45:06.040Z,32.30
2023-12-09T20:47:35.821Z,28.80
2023-12-09T20:50:05.524Z,31.40
2023-12-09T20:52:34.505Z,29.30
2023-12-09T20:55:03.337Z,26.50
2023-12-09T20:57:31.928Z,25.80
2023-12-09T21:00:00.562Z,32.20
2023-12-09T21:02:29.715Z,28.20
2023-12-09T21:04:58.736Z,29.90
2023-12-09T21:07:27.454Z,29.40
2023-12-09T21:09:56.089Z,25.70
2023-12-09T21:12:25.156Z,29.10
2023-12-09T21:14:54.172Z,25.50
2023-12-09T21:17:22.977Z,27.10
2023-12-09T21:19:51.859Z,29.40
2023-12-09T21:22:20.470Z,29.00
2023-12-09T21:24:49.386Z,28.60
2023-12-09T21:27:18.351Z,28.70
2023-12-09T21:29:47.150Z,28.60
2023-12-09T21:32:16.041Z,34.70
2023-12-09T21:34:44.978Z,33.00
2023-12-09T21:37:13.480Z,33.10
2023-12-09T21:39:42.138Z,28.70
2023-12-09T21:42:11.197Z,26.60
2023-12-09T21:44:43.761Z,25.60
2023-12-09T21:47:12.724Z,26.30
2023-12-09T21:49:45.133Z,26.70
2023-12-09T21:52:14.333Z,27.00
2023-12-09T21:54:43.156Z,25.40
2023-12-09T21:57:11.851Z,20.80
2023-12-09T21:59:40.652Z,23.20
2023-12-09T22:02:11.174Z,21.10
2023-12-09T22:04:39.876Z,22.10
2023-12-09T22:07:08.901Z,22.10
2023-12-09T22:09:37.724Z,22.70
2023-12-09T22:12:07.460Z,22.70
2023-12-09T22:17:07.323Z,23.00
2023-12-09T22:19:36.062Z,22.50
2023-12-09T22:22:04.988Z,25.70
2023-12-09T22:24:34.090Z,20.20
2023-12-09T22:27:02.787Z,27.50
2023-12-09T22:29:34.952Z,23.50
2023-12-09T22:32:03.999Z,27.40
2023-12-09T22:34:33.206Z,29.20
2023-12-09T22:37:02.103Z,25.00
2023-12-09T22:39:31.023Z,25.70
2023-12-09T22:41:59.817Z,30.60
2023-12-09T22:44:28.551Z,27.40
2023-12-09T22:46:57.296Z,24.60
2023-12-09T22:49:26.932Z,25.50
2023-12-09T22:54:24.360Z,26.40
2023-12-09T22:56:53.002Z,32.00
2023-12-09T22:59:21.691Z,32.70
2023-12-09T23:01:50.638Z,33.80
2023-12-09T23:04:19.328Z,31.70
2023-12-09T23:06:48.320Z,31.00
2023-12-09T23:09:17.038Z,34.80
2023-12-09T23:11:50.947Z,34.80
2023-12-09T23:14:19.523Z,31.80
2023-12-09T23:16:48.397Z,35.50
2023-12-09T23:19:17.432Z,30.80
2023-12-09T23:21:46.919Z,30.50
2023-12-09T23:24:15.653Z,33.90
2023-12-09T23:26:44.444Z,35.60
2023-12-09T23:29:13.060Z,31.30
2023-12-09T23:31:42.315Z,32.90
2023-12-09T23:34:11.247Z,34.00
2023-12-09T23:36:39.991Z,32.40
2023-12-09T23:39:08.599Z,30.30
2023-12-09T23:41:37.362Z,37.70
2023-12-09T23:44:06.011Z,32.00
2023-12-09T23:46:34.547Z,31.00
2023-12-09T23:49:03.134Z,29.60
2023-12-09T23:51:31.808Z,31.60
2023-12-09T23:54:00.493Z,30.20
2023-12-09T23:56:29.227Z,29.50
2023-12-09T23:58:57.900Z,30.10
